Hosei Maru No.226 — JD3837 — position and weather

sailwx.info

Track history (hours):
 
Tides and Currents Weather Stations Pressure Air Temp Water Temp Dewpoint Dewpoint Depression Visibility Wind Speed Wind Dir Waves Ship Positions

Hosei Maru No.226

Last reported at 2017-Oct-17 12:29 UTC. Time now 2017-Oct-19 09:14 UTC.
Position N 34°57' E 139°44'.

Length 78 m; draft 4.5 m.

Type: Cargo ship. MMSI: 431203000.

Date/timePositionNaut miles runAvg speedWind from/ knotsBaromVisibWave heightAir tempDewpointWater temp
2017-Oct-17 12:29N 34°57' E 139°44'613.3
2017-Oct-17 12:00N 35°03' E 139°44'713.2
2017-Oct-17 11:30N 35°09' E 139°46'713.3
2017-Oct-17 11:01N 35°16' E 139°46'612.9
2017-Oct-17 10:30N 35°22' E 139°42'510.2
2017-Oct-17 10:00N 35°25' E 139°48'4 8.0
2017-Oct-17 09:30N 35°22' E 139°51'0 0.0
2017-Oct-17 08:59N 35°22' E 139°51'0 0.1
2017-Oct-17 08:29N 35°22' E 139°51'0 0.0
2017-Oct-17 07:56N 35°22' E 139°51'0 0.0
2017-Oct-17 07:26N 35°22' E 139°51'0 0.0
2017-Oct-17 06:59N 35°22' E 139°51'0 0.1
2017-Oct-17 06:29N 35°22' E 139°51'0 0.1
2017-Oct-17 05:59N 35°22' E 139°51'0 0.0
2017-Oct-17 05:29N 35°22' E 139°51'0 0.0
2017-Oct-17 04:56N 35°22' E 139°51'0 0.0
2017-Oct-17 04:29N 35°22' E 139°51'0 0.0
2017-Oct-17 03:59N 35°22' E 139°51'0 0.1
2017-Oct-17 03:29N 35°22' E 139°51'4 8.1
2017-Oct-17 03:00N 35°23' E 139°46'1 2.3
2017-Oct-17 02:30N 35°22' E 139°45'0 0.0
2017-Oct-17 02:00N 35°22' E 139°45'0 0.0
2017-Oct-17 01:30N 35°22' E 139°45'0 0.0
2017-Oct-17 01:00N 35°22' E 139°45'0 0.0
2017-Oct-17 00:30N 35°22' E 139°45'0 0.0
2017-Oct-17 00:00N 35°22' E 139°45'0 0.1
2017-Oct-16 23:27N 35°22' E 139°44'0 0.0
2017-Oct-16 22:57N 35°22' E 139°44'0 0.0
2017-Oct-16 22:30N 35°22' E 139°44'0 0.1
2017-Oct-16 22:00N 35°22' E 139°45'0 0.0
2017-Oct-16 21:30N 35°22' E 139°45'0 0.0
2017-Oct-16 21:00N 35°22' E 139°45'0 0.0
2017-Oct-16 20:30N 35°22' E 139°45'0 0.0
2017-Oct-16 20:00N 35°22' E 139°45'0 0.0
2017-Oct-16 19:30N 35°22' E 139°45'0 0.0
2017-Oct-16 18:57N 35°22' E 139°45'0 0.0
2017-Oct-16 18:30N 35°22' E 139°45'0 0.0
2017-Oct-16 18:00N 35°22' E 139°45'0 0.0
2017-Oct-16 17:30N 35°22' E 139°45'0 0.0
2017-Oct-16 17:00N 35°22' E 139°45'0 0.0
2017-Oct-16 16:30N 35°22' E 139°45'0 0.0
2017-Oct-16 15:57N 35°22' E 139°45'0 0.0
2017-Oct-16 15:30N 35°22' E 139°45'0 0.0
2017-Oct-16 15:00N 35°22' E 139°45'0 0.0
2017-Oct-16 14:30N 35°22' E 139°45'0 0.0
2017-Oct-16 13:30N 35°22' E 139°45'0 0.0
2017-Oct-16 13:00N 35°22' E 139°45'0 0.0
2017-Oct-16 12:30N 35°22' E 139°45'0 0.0
2017-Oct-16 11:57N 35°22' E 139°45'0 0.1
2017-Oct-16 11:30N 35°22' E 139°44'0 0.0
2017-Oct-16 11:00N 35°22' E 139°44'0 0.0
2017-Oct-16 10:27N 35°22' E 139°44'0 0.0
2017-Oct-16 10:00N 35°22' E 139°44'0 0.0
2017-Oct-16 09:30N 35°22' E 139°44'0 0.1
2017-Oct-16 09:00N 35°22' E 139°45'0 0.0
2017-Oct-16 08:30N 35°22' E 139°45'0 0.0
2017-Oct-16 08:00N 35°22' E 139°45'0 0.1
2017-Oct-16 07:30N 35°22' E 139°44'0 0.1
2017-Oct-16 07:00N 35°22' E 139°45'0 0.0
2017-Oct-16 06:30N 35°22' E 139°45'0 0.0
2017-Oct-16 06:00N 35°22' E 139°45'0 0.0
2017-Oct-16 05:30N 35°22' E 139°45'0 0.0
2017-Oct-16 05:00N 35°22' E 139°45'5 9.2
2017-Oct-16 04:31N 35°18' E 139°45'611.6
2017-Oct-16 04:01N 35°12' E 139°47'611.7
2017-Oct-16 03:31N 35°07' E 139°45'611.7
2017-Oct-16 03:01N 35°01' E 139°45'510.6
2017-Oct-16 02:30N 34°55' E 139°44'2911.1
2017-Oct-15 23:54N 35°04' E 140°17'  
2017-Oct-10 07:04N 33°60' E 135°01'413.1
2017-Oct-10 06:44N 34°04' E 135°02'312.8
2017-Oct-10 06:30N 34°07' E 135°03'612.3
2017-Oct-10 05:59N 34°13' E 135°05'2 3.2
2017-Oct-10 05:30N 34°14' E 135°06'0 0.0
2017-Oct-10 05:00N 34°14' E 135°06'0 0.0
2017-Oct-10 04:30N 34°14' E 135°06'0 0.0
2017-Oct-10 04:00N 34°14' E 135°06'0 0.0
2017-Oct-10 03:30N 34°14' E 135°06'0 0.0
2017-Oct-10 03:00N 34°14' E 135°06'0 0.0
2017-Oct-10 02:30N 34°14' E 135°06'0 0.0
2017-Oct-10 01:57N 34°14' E 135°06'0 0.0
2017-Oct-10 01:27N 34°14' E 135°06'0 0.0
2017-Oct-10 01:00N 34°14' E 135°06'0 0.0
2017-Oct-10 00:30N 34°14' E 135°06'0 0.0
2017-Oct-10 00:00N 34°14' E 135°06'0 0.0
2017-Oct-09 23:30N 34°14' E 135°06'0 0.0
2017-Oct-09 23:00N 34°14' E 135°06'0 0.0
2017-Oct-09 22:30N 34°14' E 135°06'1 1.3
2017-Oct-09 22:00N 34°15' E 135°06'0 0.3
2017-Oct-09 21:30N 34°15' E 135°06'0 0.0
2017-Oct-09 21:00N 34°15' E 135°06'0 0.0
2017-Oct-09 20:30N 34°15' E 135°06'0 0.0
2017-Oct-09 19:57N 34°15' E 135°06'0 0.0
2017-Oct-09 19:27N 34°15' E 135°06'0 0.0
2017-Oct-09 19:00N 34°15' E 135°06'0 0.0
2017-Oct-09 18:30N 34°15' E 135°06'0 0.0
2017-Oct-09 18:00N 34°15' E 135°06'0 0.0
2017-Oct-09 17:30N 34°15' E 135°06'0 0.0
2017-Oct-09 17:00N 34°15' E 135°06'0 0.0
2017-Oct-09 16:30N 34°15' E 135°06'0 0.0
2017-Oct-09 16:00N 34°15' E 135°06'0 0.0
2017-Oct-09 14:42N 34°15' E 135°06'0 0.0
2017-Oct-09 14:27N 34°15' E 135°06'0 0.0
2017-Oct-09 12:48N 34°15' E 135°06'0 0.0
2017-Oct-09 11:54N 34°15' E 135°06'0 0.0
2017-Oct-09 11:30N 34°15' E 135°06'0 0.0
2017-Oct-09 10:54N 34°15' E 135°06'0 0.0
2017-Oct-09 10:30N 34°15' E 135°06'0 0.0
2017-Oct-09 10:00N 34°15' E 135°06'0 0.0
2017-Oct-09 09:27N 34°15' E 135°06'0 0.0
2017-Oct-09 09:00N 34°15' E 135°06'0 0.0
2017-Oct-09 08:30N 34°15' E 135°06'0 0.1
2017-Oct-09 08:00N 34°15' E 135°06'0 0.0
2017-Oct-09 07:30N 34°15' E 135°06'0 0.7
2017-Oct-09 07:00N 34°15' E 135°06'613.0
2017-Oct-09 06:30N 34°08' E 135°04'612.8
2017-Oct-09 06:00N 34°02' E 135°02'22810.9
2017-Oct-08 09:02N 34°50' E 139°33'212.4
2017-Oct-08 08:52N 34°50' E 139°35'  
Track history (hours):
 
Tides and Currents Weather Stations Pressure Air Temp Water Temp Dewpoint Dewpoint Depression Visibility Wind Speed Wind Dir Waves Ship Positions

Hosei Maru No.226

Last reported at 2017-Oct-17 12:29 UTC. Time now 2017-Oct-19 09:14 UTC.
Position N 34°57' E 139°44'.

Length 78 m; draft 4.5 m.

Type: Cargo ship. MMSI: 431203000.

Date/timePositionNaut miles runAvg speedWind from/ knotsBaromVisibWave heightAir tempDewpointWater temp
2017-Oct-17 12:29N 34°57' E 139°44'613.3
2017-Oct-17 12:00N 35°03' E 139°44'713.2
2017-Oct-17 11:30N 35°09' E 139°46'713.3
2017-Oct-17 11:01N 35°16' E 139°46'612.9
2017-Oct-17 10:30N 35°22' E 139°42'510.2
2017-Oct-17 10:00N 35°25' E 139°48'4 8.0
2017-Oct-17 09:30N 35°22' E 139°51'0 0.0
2017-Oct-17 08:59N 35°22' E 139°51'0 0.1
2017-Oct-17 08:29N 35°22' E 139°51'0 0.0
2017-Oct-17 07:56N 35°22' E 139°51'0 0.0
2017-Oct-17 07:26N 35°22' E 139°51'0 0.0
2017-Oct-17 06:59N 35°22' E 139°51'0 0.1
2017-Oct-17 06:29N 35°22' E 139°51'0 0.1
2017-Oct-17 05:59N 35°22' E 139°51'0 0.0
2017-Oct-17 05:29N 35°22' E 139°51'0 0.0
2017-Oct-17 04:56N 35°22' E 139°51'0 0.0
2017-Oct-17 04:29N 35°22' E 139°51'0 0.0
2017-Oct-17 03:59N 35°22' E 139°51'0 0.1
2017-Oct-17 03:29N 35°22' E 139°51'4 8.1
2017-Oct-17 03:00N 35°23' E 139°46'1 2.3
2017-Oct-17 02:30N 35°22' E 139°45'0 0.0
2017-Oct-17 02:00N 35°22' E 139°45'0 0.0
2017-Oct-17 01:30N 35°22' E 139°45'0 0.0
2017-Oct-17 01:00N 35°22' E 139°45'0 0.0
2017-Oct-17 00:30N 35°22' E 139°45'0 0.0
2017-Oct-17 00:00N 35°22' E 139°45'0 0.1
2017-Oct-16 23:27N 35°22' E 139°44'0 0.0
2017-Oct-16 22:57N 35°22' E 139°44'0 0.0
2017-Oct-16 22:30N 35°22' E 139°44'0 0.1
2017-Oct-16 22:00N 35°22' E 139°45'0 0.0
2017-Oct-16 21:30N 35°22' E 139°45'0 0.0
2017-Oct-16 21:00N 35°22' E 139°45'0 0.0
2017-Oct-16 20:30N 35°22' E 139°45'0 0.0
2017-Oct-16 20:00N 35°22' E 139°45'0 0.0
2017-Oct-16 19:30N 35°22' E 139°45'0 0.0
2017-Oct-16 18:57N 35°22' E 139°45'0 0.0
2017-Oct-16 18:30N 35°22' E 139°45'0 0.0
2017-Oct-16 18:00N 35°22' E 139°45'0 0.0
2017-Oct-16 17:30N 35°22' E 139°45'0 0.0
2017-Oct-16 17:00N 35°22' E 139°45'0 0.0
2017-Oct-16 16:30N 35°22' E 139°45'0 0.0
2017-Oct-16 15:57N 35°22' E 139°45'0 0.0
2017-Oct-16 15:30N 35°22' E 139°45'0 0.0
2017-Oct-16 15:00N 35°22' E 139°45'0 0.0
2017-Oct-16 14:30N 35°22' E 139°45'0 0.0
2017-Oct-16 13:30N 35°22' E 139°45'0 0.0
2017-Oct-16 13:00N 35°22' E 139°45'0 0.0
2017-Oct-16 12:30N 35°22' E 139°45'0 0.0
2017-Oct-16 11:57N 35°22' E 139°45'0 0.1
2017-Oct-16 11:30N 35°22' E 139°44'0 0.0
2017-Oct-16 11:00N 35°22' E 139°44'0 0.0
2017-Oct-16 10:27N 35°22' E 139°44'0 0.0
2017-Oct-16 10:00N 35°22' E 139°44'0 0.0
2017-Oct-16 09:30N 35°22' E 139°44'0 0.1
2017-Oct-16 09:00N 35°22' E 139°45'0 0.0
2017-Oct-16 08:30N 35°22' E 139°45'0 0.0
2017-Oct-16 08:00N 35°22' E 139°45'0 0.1
2017-Oct-16 07:30N 35°22' E 139°44'0 0.1
2017-Oct-16 07:00N 35°22' E 139°45'0 0.0
2017-Oct-16 06:30N 35°22' E 139°45'0 0.0
2017-Oct-16 06:00N 35°22' E 139°45'0 0.0
2017-Oct-16 05:30N 35°22' E 139°45'0 0.0
2017-Oct-16 05:00N 35°22' E 139°45'5 9.2
2017-Oct-16 04:31N 35°18' E 139°45'611.6
2017-Oct-16 04:01N 35°12' E 139°47'611.7
2017-Oct-16 03:31N 35°07' E 139°45'611.7
2017-Oct-16 03:01N 35°01' E 139°45'510.6
2017-Oct-16 02:30N 34°55' E 139°44'2911.1
2017-Oct-15 23:54N 35°04' E 140°17'  
2017-Oct-10 07:04N 33°60' E 135°01'413.1
2017-Oct-10 06:44N 34°04' E 135°02'312.8
2017-Oct-10 06:30N 34°07' E 135°03'612.3
2017-Oct-10 05:59N 34°13' E 135°05'2 3.2
2017-Oct-10 05:30N 34°14' E 135°06'0 0.0
2017-Oct-10 05:00N 34°14' E 135°06'0 0.0
2017-Oct-10 04:30N 34°14' E 135°06'0 0.0
2017-Oct-10 04:00N 34°14' E 135°06'0 0.0
2017-Oct-10 03:30N 34°14' E 135°06'0 0.0
2017-Oct-10 03:00N 34°14' E 135°06'0 0.0
2017-Oct-10 02:30N 34°14' E 135°06'0 0.0
2017-Oct-10 01:57N 34°14' E 135°06'0 0.0
2017-Oct-10 01:27N 34°14' E 135°06'0 0.0
2017-Oct-10 01:00N 34°14' E 135°06'0 0.0
2017-Oct-10 00:30N 34°14' E 135°06'0 0.0
2017-Oct-10 00:00N 34°14' E 135°06'0 0.0
2017-Oct-09 23:30N 34°14' E 135°06'0 0.0
2017-Oct-09 23:00N 34°14' E 135°06'0 0.0
2017-Oct-09 22:30N 34°14' E 135°06'1 1.3
2017-Oct-09 22:00N 34°15' E 135°06'0 0.3
2017-Oct-09 21:30N 34°15' E 135°06'0 0.0
2017-Oct-09 21:00N 34°15' E 135°06'0 0.0
2017-Oct-09 20:30N 34°15' E 135°06'0 0.0
2017-Oct-09 19:57N 34°15' E 135°06'0 0.0
2017-Oct-09 19:27N 34°15' E 135°06'0 0.0
2017-Oct-09 19:00N 34°15' E 135°06'0 0.0
2017-Oct-09 18:30N 34°15' E 135°06'0 0.0
2017-Oct-09 18:00N 34°15' E 135°06'0 0.0
2017-Oct-09 17:30N 34°15' E 135°06'0 0.0
2017-Oct-09 17:00N 34°15' E 135°06'0 0.0
2017-Oct-09 16:30N 34°15' E 135°06'0 0.0
2017-Oct-09 16:00N 34°15' E 135°06'0 0.0
2017-Oct-09 14:42N 34°15' E 135°06'0 0.0
2017-Oct-09 14:27N 34°15' E 135°06'0 0.0
2017-Oct-09 12:48N 34°15' E 135°06'0 0.0
2017-Oct-09 11:54N 34°15' E 135°06'0 0.0
2017-Oct-09 11:30N 34°15' E 135°06'0 0.0
2017-Oct-09 10:54N 34°15' E 135°06'0 0.0
2017-Oct-09 10:30N 34°15' E 135°06'0 0.0
2017-Oct-09 10:00N 34°15' E 135°06'0 0.0
2017-Oct-09 09:27N 34°15' E 135°06'0 0.0
2017-Oct-09 09:00N 34°15' E 135°06'0 0.0
2017-Oct-09 08:30N 34°15' E 135°06'0 0.1
2017-Oct-09 08:00N 34°15' E 135°06'0 0.0
2017-Oct-09 07:30N 34°15' E 135°06'0 0.7
2017-Oct-09 07:00N 34°15' E 135°06'613.0
2017-Oct-09 06:30N 34°08' E 135°04'612.8
2017-Oct-09 06:00N 34°02' E 135°02'22810.9
2017-Oct-08 09:02N 34°50' E 139°33'212.4
2017-Oct-08 08:52N 34°50' E 139°35'  

Dump ship's entire track history